createdAt,value
2023-04-18T00:00:57.204Z,7.16
2023-04-18T00:03:59.986Z,7.12
2023-04-18T00:07:06.673Z,7.06
2023-04-18T00:10:11.577Z,7.07
2023-04-18T00:13:14.320Z,7.00
2023-04-18T00:16:17.031Z,6.98
2023-04-18T00:19:20.168Z,6.95
2023-04-18T00:22:23.613Z,6.84
2023-04-18T00:25:27.811Z,6.89
2023-04-18T00:28:30.575Z,6.87
2023-04-18T00:31:33.313Z,6.86
2023-04-18T00:34:36.118Z,6.79
2023-04-18T00:37:38.787Z,6.72
2023-04-18T00:40:42.861Z,6.68
2023-04-18T00:43:45.564Z,6.65
2023-04-18T00:46:48.326Z,6.60
2023-04-18T00:49:51.532Z,6.59
2023-04-18T00:52:54.838Z,6.57
2023-04-18T00:55:58.967Z,6.55
2023-04-18T00:59:01.870Z,6.50
2023-04-18T01:02:05.402Z,6.45
2023-04-18T01:05:39.604Z,6.37
2023-04-18T01:08:43.716Z,6.35
2023-04-18T01:11:47.769Z,6.31
2023-04-18T01:14:50.652Z,6.29
2023-04-18T01:17:53.505Z,6.26
2023-04-18T01:20:57.080Z,6.23
2023-04-18T01:24:05.577Z,6.20
2023-04-18T01:27:13.340Z,6.27
2023-04-18T01:30:16.277Z,6.30
2023-04-18T01:33:18.912Z,6.30
2023-04-18T01:36:21.696Z,6.26
2023-04-18T01:39:24.369Z,6.24
2023-04-18T01:42:28.365Z,6.21
2023-04-18T01:45:33.669Z,6.15
2023-04-18T01:48:36.394Z,6.13
2023-04-18T01:51:39.866Z,6.10
2023-04-18T01:54:42.564Z,6.05
2023-04-18T01:57:46.559Z,5.97
2023-04-18T02:00:49.334Z,5.94
2023-04-18T02:03:52.071Z,5.96
2023-04-18T02:06:54.904Z,5.88
2023-04-18T02:09:57.594Z,5.88
2023-04-18T02:13:04.271Z,5.81
2023-04-18T02:16:14.059Z,5.79
2023-04-18T02:19:16.738Z,5.75
2023-04-18T02:22:19.643Z,5.73
2023-04-18T02:25:23.629Z,5.70
2023-04-18T02:28:27.654Z,5.69
2023-04-18T02:31:30.391Z,5.70
2023-04-18T02:34:33.778Z,5.69
2023-04-18T02:37:36.605Z,5.61
2023-04-18T02:40:39.245Z,5.60
2023-04-18T02:43:43.290Z,5.66
2023-04-18T02:46:45.983Z,5.60
2023-04-18T02:49:48.739Z,5.64
2023-04-18T02:52:51.427Z,5.59
2023-04-18T02:55:54.086Z,5.58
2023-04-18T02:58:58.068Z,5.53
2023-04-18T03:02:02.202Z,5.58
2023-04-18T03:05:05.317Z,5.57
2023-04-18T03:08:08.285Z,5.55
2023-04-18T03:11:10.934Z,5.54
2023-04-18T03:14:15.484Z,5.52
2023-04-18T03:21:40.075Z,5.47
2023-04-18T03:24:43.458Z,5.43
2023-04-18T03:27:46.140Z,5.41
2023-04-18T03:30:50.624Z,5.41
2023-04-18T03:33:53.362Z,5.38
2023-04-18T03:36:56.032Z,5.33
2023-04-18T03:39:58.680Z,5.33
2023-04-18T03:43:01.271Z,5.32
2023-04-18T03:46:06.336Z,5.40
2023-04-18T03:49:08.973Z,5.53
2023-04-18T03:52:11.642Z,5.57
2023-04-18T03:55:14.465Z,5.61
2023-04-18T03:58:18.024Z,5.70
2023-04-18T04:01:22.006Z,5.79
2023-04-18T04:04:25.396Z,5.93
2023-04-18T04:07:28.042Z,6.02
2023-04-18T04:10:31.212Z,6.16
2023-04-18T04:13:34.318Z,6.28
2023-04-18T04:16:38.480Z,6.38
2023-04-18T04:19:41.159Z,6.43
2023-04-18T04:22:43.860Z,6.50
2023-04-18T04:25:46.705Z,6.54
2023-04-18T04:28:50.318Z,6.60
2023-04-18T04:31:54.312Z,6.69
2023-04-18T04:34:57.296Z,6.73
2023-04-18T04:38:01.548Z,6.82
2023-04-18T04:41:04.185Z,6.89
2023-04-18T04:44:07.148Z,6.94
2023-04-18T04:47:11.174Z,7.00
2023-04-18T04:50:15.773Z,6.96
2023-04-18T04:53:18.487Z,7.08
2023-04-18T04:56:22.757Z,7.22
2023-04-18T04:59:25.943Z,7.53
2023-04-18T05:02:30.083Z,7.55
2023-04-18T05:05:32.839Z,7.66
2023-04-18T05:08:35.544Z,7.77
2023-04-18T05:11:38.166Z,8.01
2023-04-18T05:14:41.200Z,8.37
2023-04-18T05:17:45.398Z,8.53
2023-04-18T05:20:48.137Z,8.62
2023-04-18T05:23:51.390Z,8.68
2023-04-18T05:26:54.646Z,8.85
2023-04-18T05:29:57.361Z,8.77
2023-04-18T05:33:02.182Z,8.65
2023-04-18T05:36:05.576Z,8.84
2023-04-18T05:39:08.279Z,8.59
2023-04-18T05:42:10.945Z,8.54
2023-04-18T05:45:13.755Z,8.49
2023-04-18T05:48:17.782Z,8.58
2023-04-18T05:51:20.520Z,8.83
2023-04-18T05:54:23.185Z,8.69
2023-04-18T05:57:25.865Z,8.66
2023-04-18T06:00:28.860Z,8.68
2023-04-18T06:03:33.050Z,8.60
2023-04-18T06:06:36.219Z,8.65
2023-04-18T06:09:38.901Z,8.76
2023-04-18T06:12:41.632Z,8.73
2023-04-18T06:15:44.333Z,8.82
2023-04-18T06:18:48.383Z,8.91
2023-04-18T06:21:51.318Z,8.90
2023-04-18T06:24:55.436Z,8.96
2023-04-18T06:27:58.087Z,9.02
2023-04-18T06:31:00.770Z,9.13
2023-04-18T06:34:04.769Z,9.17
2023-04-18T06:37:07.763Z,9.22
2023-04-18T06:40:11.583Z,9.37
2023-04-18T06:43:14.279Z,9.28
2023-04-18T06:46:17.044Z,9.56
2023-04-18T06:49:25.200Z,9.54
2023-04-18T06:52:29.182Z,9.30
2023-04-18T06:55:31.929Z,9.27
2023-04-18T06:58:34.749Z,9.40
2023-04-18T07:01:41.364Z,9.25
2023-04-18T07:04:45.557Z,9.44
2023-04-18T07:07:48.291Z,9.55
2023-04-18T07:10:51.332Z,9.64
2023-04-18T07:13:54.212Z,9.88
2023-04-18T07:16:57.637Z,9.83
2023-04-18T07:20:01.915Z,9.92
2023-04-18T07:23:04.749Z,10.01
2023-04-18T07:26:09.601Z,10.25
2023-04-18T07:29:12.282Z,10.27
2023-04-18T07:32:22.352Z,10.10
2023-04-18T07:35:26.443Z,10.05
2023-04-18T07:38:29.245Z,10.41
2023-04-18T07:41:31.990Z,10.25
2023-04-18T07:44:36.384Z,10.39
2023-04-18T07:47:39.058Z,10.37
2023-04-18T07:50:48.776Z,10.50
2023-04-18T07:53:51.405Z,10.55
2023-04-18T07:56:54.041Z,10.64
2023-04-18T07:59:56.890Z,10.80
2023-04-18T08:02:59.825Z,10.97
2023-04-18T08:06:05.902Z,11.09
2023-04-18T08:09:09.102Z,11.22
2023-04-18T08:12:11.777Z,11.48
2023-04-18T08:15:17.485Z,11.69
2023-04-18T08:18:20.798Z,11.81
2023-04-18T08:21:24.798Z,11.84
2023-04-18T08:24:27.822Z,12.02
2023-04-18T08:27:31.364Z,12.10
2023-04-18T08:30:34.064Z,12.03
2023-04-18T08:33:37.121Z,11.80
2023-04-18T08:36:41.117Z,12.14
2023-04-18T08:39:44.832Z,12.05
2023-04-18T08:42:47.616Z,11.99
2023-04-18T08:45:50.721Z,12.38
2023-04-18T08:48:53.718Z,12.68
2023-04-18T08:51:59.626Z,12.48
2023-04-18T08:55:03.878Z,12.65
2023-04-18T08:58:06.880Z,12.69
2023-04-18T09:01:10.296Z,12.72
2023-04-18T09:04:14.117Z,12.75
2023-04-18T09:07:18.909Z,13.18
2023-04-18T09:10:29.930Z,12.95
2023-04-18T09:13:39.857Z,13.04
2023-04-18T09:16:47.952Z,13.25
2023-04-18T09:19:50.957Z,13.08
2023-04-18T09:22:57.770Z,13.11
2023-04-18T09:26:00.414Z,13.30
2023-04-18T09:29:03.307Z,13.49
2023-04-18T09:32:06.478Z,13.64
2023-04-18T09:35:09.708Z,13.53
2023-04-18T09:38:13.699Z,13.52
2023-04-18T09:41:19.945Z,13.72
2023-04-18T09:44:23.992Z,13.93
2023-04-18T09:47:27.764Z,13.92
2023-04-18T09:50:31.255Z,13.74
2023-04-18T09:53:40.489Z,14.11
2023-04-18T09:56:45.729Z,13.99
2023-04-18T09:59:52.617Z,13.91
2023-04-18T10:03:09.833Z,14.07
2023-04-18T10:06:13.000Z,14.06
2023-04-18T10:09:17.274Z,14.23
2023-04-18T10:12:20.590Z,14.45
2023-04-18T10:15:28.506Z,14.63
2023-04-18T10:18:31.205Z,14.34
2023-04-18T10:21:35.442Z,14.41
2023-04-18T10:24:49.960Z,14.90
2023-04-18T10:28:00.455Z,15.15
2023-04-18T10:31:05.548Z,15.54
2023-04-18T10:34:08.507Z,15.40
2023-04-18T10:37:12.786Z,15.37
2023-04-18T10:40:17.680Z,15.26
2023-04-18T10:43:20.704Z,15.21
2023-04-18T10:46:31.746Z,15.16
2023-04-18T10:49:37.629Z,15.22
2023-04-18T10:52:40.597Z,15.16
2023-04-18T10:55:50.685Z,15.22
2023-04-18T10:58:54.222Z,15.09
2023-04-18T11:01:58.449Z,15.31
2023-04-18T11:05:04.763Z,15.33
2023-04-18T11:08:23.501Z,15.51
2023-04-18T11:11:27.687Z,15.50
2023-04-18T11:14:40.486Z,15.50
2023-04-18T11:17:43.245Z,15.51
2023-04-18T11:20:49.327Z,15.18
2023-04-18T11:23:52.417Z,15.13
2023-04-18T11:26:57.017Z,15.13
2023-04-18T11:29:59.997Z,15.22
2023-04-18T11:33:06.481Z,15.58
2023-04-18T11:36:09.948Z,15.54
2023-04-18T11:39:12.923Z,15.76
2023-04-18T11:42:17.606Z,15.88
2023-04-18T11:45:20.848Z,15.64
2023-04-18T11:48:24.224Z,15.91
2023-04-18T11:51:35.723Z,16.01
2023-04-18T11:54:43.046Z,16.02
2023-04-18T11:57:55.198Z,16.28
2023-04-18T12:00:58.774Z,16.08
2023-04-18T12:04:03.401Z,16.35
2023-04-18T12:07:06.652Z,16.60
2023-04-18T12:10:11.214Z,16.58
2023-04-18T12:13:16.019Z,16.54
2023-04-18T12:16:18.790Z,16.55
2023-04-18T12:19:21.678Z,16.44
2023-04-18T12:22:42.961Z,16.26
2023-04-18T12:25:45.784Z,16.26
2023-04-18T12:28:51.392Z,16.26
2023-04-18T12:31:54.283Z,16.21
2023-04-18T12:34:57.522Z,15.70
2023-04-18T12:38:02.159Z,15.84
2023-04-18T12:41:05.509Z,15.79
2023-04-18T12:44:10.132Z,15.67
2023-04-18T12:47:13.012Z,15.72
2023-04-18T12:50:20.527Z,15.81
2023-04-18T12:53:23.204Z,15.74
2023-04-18T12:56:25.870Z,16.17
2023-04-18T12:59:30.189Z,16.19
2023-04-18T13:02:37.223Z,16.32
2023-04-18T13:05:40.136Z,16.48
2023-04-18T13:08:42.862Z,16.51
2023-04-18T13:11:49.512Z,16.60
2023-04-18T13:14:53.739Z,17.00
2023-04-18T13:17:57.179Z,17.00
2023-04-18T13:20:59.856Z,17.06
2023-04-18T13:24:03.131Z,17.04
2023-04-18T13:27:10.341Z,16.69
2023-04-18T13:30:14.740Z,16.84
2023-04-18T13:33:18.045Z,16.87
2023-04-18T13:36:21.190Z,16.82
2023-04-18T13:39:24.884Z,16.53
2023-04-18T13:42:27.764Z,16.84
2023-04-18T13:45:32.097Z,16.76
2023-04-18T13:48:34.878Z,16.62
2023-04-18T13:51:37.498Z,16.52
2023-04-18T13:54:41.335Z,16.84
2023-04-18T13:57:44.086Z,16.75
2023-04-18T14:00:48.070Z,16.54
2023-04-18T14:03:51.171Z,16.62
2023-04-18T14:06:54.015Z,16.98
2023-04-18T14:09:56.668Z,17.08
2023-04-18T14:12:59.314Z,17.39
2023-04-18T14:16:03.772Z,17.11
2023-04-18T14:19:06.725Z,17.51
2023-04-18T14:22:09.406Z,17.66
2023-04-18T14:25:14.320Z,17.63
2023-04-18T14:28:19.042Z,17.29
2023-04-18T14:31:23.139Z,16.76
2023-04-18T14:34:25.870Z,16.50
2023-04-18T14:37:28.740Z,16.89
2023-04-18T14:40:32.981Z,17.31
2023-04-18T14:43:35.820Z,17.26
2023-04-18T14:46:39.968Z,17.02
2023-04-18T14:49:42.798Z,16.88
2023-04-18T14:52:46.356Z,16.88
2023-04-18T14:55:49.065Z,16.79
2023-04-18T14:58:51.707Z,16.33
2023-04-18T15:01:56.219Z,16.16
2023-04-18T15:04:59.103Z,16.22
2023-04-18T15:08:02.055Z,16.47
2023-04-18T15:11:07.201Z,16.74
2023-04-18T15:14:10.674Z,16.90
2023-04-18T15:17:14.753Z,17.00
2023-04-18T15:20:17.559Z,16.64
2023-04-18T15:23:20.842Z,16.96
2023-04-18T15:26:24.776Z,16.92
2023-04-18T15:29:27.506Z,16.83
2023-04-18T15:32:31.581Z,16.44
2023-04-18T15:35:34.208Z,16.60
2023-04-18T15:38:36.936Z,16.28
2023-04-18T15:41:42.045Z,16.44
2023-04-18T15:44:44.808Z,16.21
2023-04-18T15:47:48.908Z,16.12
2023-04-18T15:50:52.368Z,15.76
2023-04-18T15:53:55.170Z,15.83
2023-04-18T15:56:58.216Z,15.54
2023-04-18T16:00:00.984Z,15.55
2023-04-18T16:03:05.695Z,15.81
2023-04-18T16:06:09.794Z,15.63
2023-04-18T16:09:12.513Z,15.69
2023-04-18T16:12:15.126Z,15.96
2023-04-18T16:15:18.016Z,15.68
2023-04-18T16:18:22.120Z,15.29
2023-04-18T16:21:25.867Z,15.38
2023-04-18T16:24:30.238Z,15.58
2023-04-18T16:27:33.467Z,15.56
2023-04-18T16:30:36.252Z,15.80
2023-04-18T16:33:40.250Z,15.15
2023-04-18T16:36:42.974Z,15.02
2023-04-18T16:39:45.974Z,14.95
2023-04-18T16:42:48.669Z,14.82
2023-04-18T16:45:51.408Z,14.98
2023-04-18T16:48:55.605Z,14.79
2023-04-18T16:51:58.402Z,15.04
2023-04-18T16:55:01.024Z,14.76
2023-04-18T16:58:04.023Z,14.79
2023-04-18T17:01:08.080Z,14.52
2023-04-18T17:04:12.646Z,14.72
2023-04-18T17:07:15.609Z,14.63
2023-04-18T17:10:18.699Z,14.50
2023-04-18T17:13:22.372Z,14.45
2023-04-18T17:16:25.246Z,14.30
2023-04-18T17:19:29.300Z,14.21
2023-04-18T17:22:32.290Z,14.14
2023-04-18T17:25:34.938Z,13.98
2023-04-18T17:28:37.958Z,13.97
2023-04-18T17:31:40.744Z,14.00
2023-04-18T17:34:44.737Z,13.86
2023-04-18T17:37:47.845Z,13.83
2023-04-18T17:40:59.357Z,13.75
2023-04-18T17:44:02.286Z,13.54
2023-04-18T17:47:05.470Z,13.68
2023-04-18T17:50:10.330Z,13.71
2023-04-18T17:53:13.135Z,13.57
2023-04-18T17:56:16.376Z,13.49
2023-04-18T17:59:19.115Z,13.46
2023-04-18T18:02:23.323Z,13.57
2023-04-18T18:05:27.748Z,13.63
2023-04-18T18:08:30.681Z,13.47
2023-04-18T18:11:33.634Z,13.41
2023-04-18T18:14:36.455Z,13.46
2023-04-18T18:17:39.178Z,13.38
2023-04-18T18:20:43.877Z,13.30
2023-04-18T18:23:46.597Z,13.17
2023-04-18T18:26:51.506Z,13.26
2023-04-18T18:29:54.453Z,13.16
2023-04-18T18:32:57.549Z,13.12
2023-04-18T18:36:01.824Z,13.18
2023-04-18T18:39:04.738Z,13.07
2023-04-18T18:42:08.065Z,13.24
2023-04-18T18:45:11.164Z,13.38
2023-04-18T18:48:15.337Z,13.11
2023-04-18T18:51:19.929Z,13.07
2023-04-18T18:54:22.863Z,13.16
2023-04-18T18:57:26.109Z,13.04
2023-04-18T19:00:28.849Z,13.13
2023-04-18T19:03:31.699Z,13.03
2023-04-18T19:06:36.412Z,13.11
2023-04-18T19:09:39.067Z,12.90
2023-04-18T19:12:42.846Z,12.92
2023-04-18T19:15:45.708Z,12.91
2023-04-18T19:18:50.445Z,13.21
2023-04-18T19:21:54.454Z,12.92
2023-04-18T19:24:57.295Z,12.89
2023-04-18T19:28:00.017Z,13.16
2023-04-18T19:31:03.429Z,12.94
2023-04-18T19:34:06.109Z,12.92
2023-04-18T19:37:10.127Z,12.97
2023-04-18T19:40:15.038Z,12.97
2023-04-18T19:43:18.054Z,12.89
2023-04-18T19:46:20.723Z,12.93
2023-04-18T19:49:23.414Z,13.02
2023-04-18T19:52:27.776Z,13.00
2023-04-18T19:55:31.588Z,12.96
2023-04-18T19:58:36.005Z,12.86
2023-04-18T20:01:38.789Z,12.90
2023-04-18T20:04:41.912Z,12.72
2023-04-18T20:07:46.356Z,12.90
2023-04-18T20:10:49.016Z,12.82
2023-04-18T20:13:52.297Z,12.66
2023-04-18T20:16:55.950Z,12.84
2023-04-18T20:19:59.650Z,12.82
2023-04-18T20:23:03.800Z,12.68
2023-04-18T20:26:06.596Z,12.58
2023-04-18T20:29:09.263Z,12.59
2023-04-18T20:32:12.380Z,12.64
2023-04-18T20:35:15.009Z,12.62
2023-04-18T20:38:20.115Z,12.61
2023-04-18T20:41:24.211Z,12.46
2023-04-18T20:44:28.057Z,12.45
2023-04-18T20:47:30.941Z,12.60
2023-04-18T20:50:33.616Z,12.40
2023-04-18T20:53:37.650Z,12.36
2023-04-18T20:56:40.608Z,12.35
2023-04-18T20:59:43.244Z,12.39
2023-04-18T21:02:46.118Z,12.50
2023-04-18T21:05:48.820Z,12.55
2023-04-18T21:08:53.083Z,12.51
2023-04-18T21:11:55.716Z,12.34
2023-04-18T21:14:58.380Z,12.31
2023-04-18T21:18:01.107Z,12.19
2023-04-18T21:21:03.836Z,12.12
2023-04-18T21:24:08.147Z,12.02
2023-04-18T21:27:11.396Z,11.90
2023-04-18T21:30:14.803Z,11.78
2023-04-18T21:33:17.541Z,11.75
2023-04-18T21:36:20.563Z,11.76
2023-04-18T21:39:24.704Z,11.74
2023-04-18T21:42:27.378Z,11.72
2023-04-18T21:45:30.097Z,11.78
2023-04-18T21:48:32.816Z,11.70
2023-04-18T21:51:35.452Z,11.78
2023-04-18T21:54:40.246Z,11.89
2023-04-18T21:57:42.992Z,11.85
2023-04-18T22:00:45.968Z,11.96
2023-04-18T22:03:48.828Z,11.89
2023-04-18T22:06:54.063Z,11.89
2023-04-18T22:09:59.709Z,11.85
2023-04-18T22:13:04.373Z,11.85
2023-04-18T22:16:08.348Z,11.80
2023-04-18T22:19:11.414Z,11.99
2023-04-18T22:22:14.063Z,11.75
2023-04-18T22:25:18.146Z,11.79
2023-04-18T22:28:22.803Z,11.69
2023-04-18T22:31:25.833Z,11.72
2023-04-18T22:34:28.535Z,11.63
2023-04-18T22:37:31.382Z,11.63
2023-04-18T22:40:37.921Z,11.62
2023-04-18T22:43:40.584Z,11.71
2023-04-18T22:46:44.814Z,11.87
2023-04-18T22:49:47.697Z,11.85
2023-04-18T22:52:51.102Z,11.91
2023-04-18T22:55:55.413Z,11.76
2023-04-18T22:58:58.164Z,11.78
2023-04-18T23:02:02.256Z,11.87
2023-04-18T23:05:06.008Z,11.91
2023-04-18T23:08:08.727Z,11.77
2023-04-18T23:11:12.750Z,11.75
2023-04-18T23:14:16.951Z,11.97
2023-04-18T23:17:19.765Z,11.96
2023-04-18T23:20:25.486Z,11.74
2023-04-18T23:23:28.236Z,11.74
2023-04-18T23:26:32.326Z,11.92
2023-04-18T23:29:37.680Z,11.77
2023-04-18T23:32:40.717Z,11.78
2023-04-18T23:35:43.516Z,11.72
2023-04-18T23:38:46.755Z,11.71
2023-04-18T23:41:51.411Z,11.73
2023-04-18T23:44:54.655Z,11.72
2023-04-18T23:47:57.385Z,11.61
2023-04-18T23:51:00.368Z,11.69
2023-04-18T23:54:03.698Z,11.70
2023-04-18T23:57:07.707Z,11.81
